Time;durP1;ratioP1;P1;durP2;ratioP2;P2;SDS_P1;SDS_P2;PMS_P1;PMS_P2;Temp;Humidity;BMP_temperature;BMP_pressure;BME280_temperature;BME280_humidity;BME280_pressure;Samples;Min_cycle;Max_cycle;Signal;HPM_P1;HPM_P2
2021/12/09 00:01:03;;;;;;;;;4.25;3.50;;;;;4.78;87.18;100164.88;5059853;28;45223;-66
2021/12/09 00:03:32;;;;;;;;;4.50;4.50;;;;;4.79;87.22;100166.59;5059613;28;45374;-65
2021/12/09 00:05:59;;;;;;;;;2.00;2.00;;;;;4.79;87.72;100171.72;5060644;28;46087;-64
2021/12/09 00:08:27;;;;;;;;;4.75;3.00;;;;;4.78;87.04;100167.47;5061006;28;45482;-62
2021/12/09 00:10:58;;;;;;;;;1.00;1.00;;;;;4.79;86.82;100174.31;5060969;28;45303;-67
2021/12/09 00:13:26;;;;;;;;;1.50;1.50;;;;;4.80;87.22;100173.44;5060752;28;45527;-64
2021/12/09 00:15:52;;;;;;;;;2.50;2.00;;;;;4.79;87.22;100174.31;5060936;28;45549;-66
2021/12/09 00:18:18;;;;;;;;;3.50;1.00;;;;;4.79;86.46;100174.31;5060626;28;45814;-65
2021/12/09 00:20:43;;;;;;;;;1.00;1.00;;;;;4.74;86.51;100174.38;5060878;28;45537;-67
2021/12/09 00:23:09;;;;;;;;;1.00;1.00;;;;;4.70;87.12;100169.28;5060446;28;45461;-66
2021/12/09 00:25:36;;;;;;;;;4.25;2.00;;;;;4.72;86.88;100170.97;5059859;28;46156;-64
2021/12/09 00:28:03;;;;;;;;;4.00;2.50;;;;;4.71;87.06;100173.56;5060752;28;45775;-66
2021/12/09 00:30:30;;;;;;;;;1.25;1.25;;;;;4.67;87.14;100166.75;5060676;28;45557;-65
2021/12/09 00:32:56;;;;;;;;;1.00;1.00;;;;;4.65;86.53;100168.50;5060701;28;45454;-66
2021/12/09 00:35:27;;;;;;;;;0.00;0.00;;;;;4.64;86.94;100169.38;5059982;28;45888;-64
2021/12/09 00:38:01;;;;;;;;;1.00;1.00;;;;;4.59;87.11;100170.25;5060035;28;45757;-64
2021/12/09 00:40:27;;;;;;;;;3.00;0.50;;;;;4.57;86.05;100166.84;5048331;28;45493;-65
2021/12/09 00:42:52;;;;;;;;;4.00;0.50;;;;;4.58;87.15;100168.56;5060368;28;45613;-66
2021/12/09 00:45:18;;;;;;;;;4.00;1.50;;;;;4.59;86.74;100174.56;5060402;28;46244;-65
2021/12/09 00:47:44;;;;;;;;;1.00;1.00;;;;;4.62;86.83;100181.41;5059992;28;45677;-67
2021/12/09 00:50:10;;;;;;;;;4.00;0.75;;;;;4.60;87.55;100171.09;5060247;28;45497;-67
2021/12/09 00:52:36;;;;;;;;;1.00;1.00;;;;;4.61;87.32;100182.28;5060297;28;45475;-66
2021/12/09 00:55:05;;;;;;;;;2.75;1.00;;;;;4.61;86.21;100190.00;5060294;28;45308;-66
2021/12/09 00:57:30;;;;;;;;;2.50;0.75;;;;;4.63;87.25;100185.69;5060214;28;46817;-66
2021/12/09 00:59:56;;;;;;;;;4.00;1.00;;;;;4.62;87.15;100184.00;5060426;28;45235;-65
2021/12/09 01:02:21;;;;;;;;;1.75;1.75;;;;;4.64;87.72;100183.09;5059991;28;45226;-65
2021/12/09 01:04:47;;;;;;;;;4.00;1.00;;;;;4.58;86.33;100178.84;5059833;28;45552;-66
2021/12/09 01:07:13;;;;;;;;;1.50;1.50;;;;;4.61;87.12;100177.13;5059966;28;45419;-64
2021/12/09 01:09:38;;;;;;;;;2.00;0.25;;;;;4.62;87.06;100181.41;5060273;28;45434;-65
2021/12/09 01:12:06;;;;;;;;;1.00;0.00;;;;;4.61;87.51;100184.88;5060094;28;45356;-65
2021/12/09 01:14:31;;;;;;;;;0.00;0.00;;;;;4.61;86.10;100174.56;5060010;28;45272;-65
2021/12/09 01:16:57;;;;;;;;;2.00;1.00;;;;;4.61;86.74;100177.13;5059803;28;45452;-65
2021/12/09 01:19:23;;;;;;;;;1.75;0.50;;;;;4.61;86.02;100187.44;5059847;28;45455;-65
2021/12/09 01:21:48;;;;;;;;;0.00;0.00;;;;;4.59;87.41;100184.84;5059663;28;45162;-66
2021/12/09 01:24:14;;;;;;;;;0.00;0.00;;;;;4.64;86.66;100189.97;5061233;28;45672;-66
2021/12/09 01:26:40;;;;;;;;;1.00;0.00;;;;;4.65;86.93;100199.38;5059741;28;45410;-66
2021/12/09 01:29:14;;;;;;;;;1.00;1.00;;;;;4.65;87.02;100201.97;5059982;28;45190;-67
2021/12/09 01:31:41;;;;;;;;;1.00;1.00;;;;;4.67;86.20;100202.78;5059711;28;46300;-66
2021/12/09 01:34:08;;;;;;;;;0.25;0.25;;;;;4.69;86.87;100196.75;5059521;28;45367;-66
2021/12/09 01:36:36;;;;;;;;;1.00;1.00;;;;;4.70;86.46;100200.19;5059617;28;45355;-66
2021/12/09 01:39:06;;;;;;;;;1.50;1.00;;;;;4.73;86.95;100202.72;5059749;28;45316;-66
2021/12/09 01:41:31;;;;;;;;;1.75;1.75;;;;;4.73;86.57;100194.97;5059530;28;45308;-66
2021/12/09 01:43:57;;;;;;;;;1.50;0.25;;;;;4.77;86.41;100199.22;5059844;28;45411;-66
2021/12/09 01:46:22;;;;;;;;;1.50;1.50;;;;;4.80;86.66;100207.75;5059303;28;45319;-65
2021/12/09 01:48:50;;;;;;;;;1.00;0.25;;;;;4.81;86.84;100206.91;5059161;28;45350;-63
2021/12/09 01:51:16;;;;;;;;;1.25;1.25;;;;;4.85;87.21;100215.44;5061413;28;45608;-63
2021/12/09 01:53:42;;;;;;;;;0.50;0.50;;;;;4.86;86.42;100218.00;5061722;28;46724;-64
2021/12/09 01:56:11;;;;;;;;;1.00;1.00;;;;;4.90;86.81;100221.38;5062868;28;45293;-64
2021/12/09 01:58:37;;;;;;;;;0.00;0.00;;;;;4.91;86.23;100215.34;5063425;28;45287;-63
2021/12/09 02:01:04;;;;;;;;;0.00;0.00;;;;;4.93;86.57;100220.47;5062047;28;45426;-64
2021/12/09 02:03:30;;;;;;;;;1.75;1.00;;;;;4.93;86.65;100221.34;5060324;28;45690;-62
2021/12/09 02:05:55;;;;;;;;;2.00;0.25;;;;;4.95;86.13;100222.16;5060321;28;45452;-62
2021/12/09 02:08:22;;;;;;;;;1.25;1.00;;;;;5.00;86.40;100225.50;5060861;28;45591;-62
2021/12/09 02:10:49;;;;;;;;;2.25;1.75;;;;;5.02;86.49;100230.69;5060455;28;45533;-62
2021/12/09 02:13:16;;;;;;;;;1.00;0.00;;;;;5.04;86.46;100227.22;5060554;28;46252;-62
2021/12/09 02:15:42;;;;;;;;;1.50;1.00;;;;;5.05;85.10;100230.63;5060384;28;45433;-62
2021/12/09 02:18:09;;;;;;;;;4.00;1.00;;;;;5.05;85.11;100228.06;5061640;28;45405;-62
2021/12/09 02:20:37;;;;;;;;;1.00;1.00;;;;;5.04;85.06;100224.63;5059973;28;45781;-62
2021/12/09 02:23:09;;;;;;;;;0.25;0.25;;;;;5.07;85.52;100216.84;5057834;28;46094;-63
2021/12/09 02:25:44;;;;;;;;;2.00;0.00;;;;;5.09;85.54;100222.00;5059360;28;45786;-64
2021/12/09 02:28:11;;;;;;;;;0.00;0.00;;;;;5.10;84.93;100213.38;5060354;28;45359;-64
2021/12/09 02:30:37;;;;;;;;;1.75;0.00;;;;;5.11;85.36;100215.09;5060301;28;45556;-64
2021/12/09 02:33:03;;;;;;;;;0.50;0.25;;;;;5.14;85.17;100220.19;5059878;28;46285;-64
2021/12/09 02:35:28;;;;;;;;;1.00;0.00;;;;;5.15;85.31;100222.75;5061573;28;45232;-65
2021/12/09 02:37:53;;;;;;;;;1.00;1.00;;;;;5.17;84.69;100210.69;5062483;28;45429;-64
2021/12/09 02:40:19;;;;;;;;;0.00;0.00;;;;;5.18;84.99;100216.69;5061263;28;45471;-63
2021/12/09 02:42:45;;;;;;;;;2.00;0.75;;;;;5.21;84.71;100211.53;5061895;28;46191;-63
2021/12/09 02:45:11;;;;;;;;;1.00;1.00;;;;;5.22;84.45;100218.38;5060971;28;45293;-63
2021/12/09 02:47:37;;;;;;;;;0.00;0.00;;;;;5.23;84.60;100214.09;5052466;28;45367;-63
2021/12/09 02:50:05;;;;;;;;;0.25;0.00;;;;;5.26;84.61;100214.03;5060715;28;45403;-64
2021/12/09 02:52:31;;;;;;;;;0.00;0.00;;;;;5.30;85.05;100218.25;5061246;28;45323;-64
2021/12/09 02:54:58;;;;;;;;;2.00;1.00;;;;;5.34;85.98;100212.19;5061572;28;45401;-64
2021/12/09 02:57:23;;;;;;;;;2.00;2.00;;;;;5.38;85.49;100234.44;5061364;28;45438;-64
2021/12/09 02:59:49;;;;;;;;;0.25;0.25;;;;;5.38;85.07;100231.88;5048954;28;45264;-63
2021/12/09 03:02:14;;;;;;;;;0.00;0.00;;;;;5.37;85.05;100232.75;5053589;28;45345;-64
2021/12/09 03:04:42;;;;;;;;;0.25;0.25;;;;;5.38;85.32;100232.72;5035662;28;45275;-64
2021/12/09 03:07:14;;;;;;;;;1.00;0.00;;;;;5.41;85.27;100239.59;5060961;28;45450;-63
2021/12/09 03:09:49;;;;;;;;;0.00;0.00;;;;;5.43;84.87;100238.69;5061758;28;45425;-63
2021/12/09 03:12:25;;;;;;;;;0.25;0.25;;;;;5.47;85.64;100237.75;5060586;28;46323;-63
2021/12/09 03:14:51;;;;;;;;;0.00;0.00;;;;;5.50;85.87;100240.28;5061381;28;45719;-63
2021/12/09 03:17:17;;;;;;;;;2.50;0.75;;;;;5.53;85.37;100239.38;5060707;28;45360;-64
2021/12/09 03:19:43;;;;;;;;;4.25;0.00;;;;;5.56;84.81;100228.19;5060973;28;45463;-65
2021/12/09 03:22:08;;;;;;;;;0.00;0.00;;;;;5.56;85.30;100234.19;5056649;28;46251;-65
2021/12/09 03:24:34;;;;;;;;;2.00;1.00;;;;;5.58;85.67;100229.84;5045643;28;45398;-66
2021/12/09 03:27:00;;;;;;;;;0.50;0.50;;;;;5.62;85.54;100233.25;5057307;28;45355;-64
2021/12/09 03:29:27;;;;;;;;;1.50;0.25;;;;;5.64;85.08;100236.66;5061250;28;45329;-67
2021/12/09 03:31:57;;;;;;;;;2.00;2.00;;;;;5.64;84.73;100239.25;5060492;28;46523;-67
2021/12/09 03:34:24;;;;;;;;;1.25;0.00;;;;;5.66;85.15;100237.47;5060784;28;45359;-67
2021/12/09 03:36:51;;;;;;;;;1.75;0.00;;;;;5.69;85.63;100229.69;5060726;28;45315;-67
2021/12/09 03:39:20;;;;;;;;;0.50;0.50;;;;;5.72;84.67;100239.97;5061084;28;45454;-68
2021/12/09 03:41:49;;;;;;;;;1.25;0.00;;;;;5.71;84.62;100252.00;5060027;28;45371;-68
2021/12/09 03:44:15;;;;;;;;;0.75;0.00;;;;;5.71;84.52;100251.16;5056266;28;45318;-68
2021/12/09 03:46:40;;;;;;;;;0.00;0.00;;;;;5.74;84.80;100251.09;5052029;28;45535;-67
2021/12/09 03:49:06;;;;;;;;;1.00;1.00;;;;;5.74;84.38;100249.38;5048137;28;45226;-68
2021/12/09 03:51:35;;;;;;;;;1.00;1.00;;;;;5.79;84.23;100249.28;5038916;28;46281;-68
2021/12/09 03:54:06;;;;;;;;;1.50;1.00;;;;;5.79;83.12;100257.88;5053532;28;45233;-68
2021/12/09 03:56:32;;;;;;;;;2.00;0.25;;;;;5.79;84.44;100263.03;5060390;28;45313;-68
2021/12/09 03:58:57;;;;;;;;;1.00;1.00;;;;;5.77;84.17;100253.63;5060111;28;45430;-68
2021/12/09 04:01:23;;;;;;;;;0.25;0.25;;;;;5.69;82.53;100256.31;5060770;28;45200;-63
2021/12/09 04:03:48;;;;;;;;;1.00;1.00;;;;;5.67;82.93;100263.25;5053634;28;45145;-63
2021/12/09 04:06:14;;;;;;;;;1.75;1.75;;;;;5.67;84.23;100268.41;5060802;28;45232;-64
2021/12/09 04:08:39;;;;;;;;;2.75;1.00;;;;;5.68;84.60;100264.94;5059996;28;45363;-64
2021/12/09 04:11:06;;;;;;;;;4.00;1.50;;;;;5.69;84.43;100266.63;5060268;28;46277;-64
2021/12/09 04:13:33;;;;;;;;;4.00;1.00;;;;;5.72;84.97;100266.59;5058649;28;45866;-64
2021/12/09 04:15:58;;;;;;;;;0.00;0.00;;;;;5.75;84.34;100266.53;5060615;28;45383;-66
2021/12/09 04:18:24;;;;;;;;;0.00;0.00;;;;;5.75;84.76;100261.38;5059286;28;45307;-65
2021/12/09 04:20:49;;;;;;;;;0.75;0.50;;;;;5.77;84.48;100264.78;5060447;28;45876;-64
2021/12/09 04:23:15;;;;;;;;;1.00;1.00;;;;;5.76;83.80;100268.25;5052667;28;45332;-64
2021/12/09 04:25:40;;;;;;;;;1.25;0.50;;;;;5.75;82.35;100276.84;5046106;28;45433;-64
2021/12/09 04:28:05;;;;;;;;;2.00;1.00;;;;;5.75;83.14;100268.25;5060110;28;45435;-62
2021/12/09 04:30:32;;;;;;;;;4.25;1.50;;;;;5.76;84.09;100272.53;5059271;28;45238;-66
2021/12/09 04:32:58;;;;;;;;;2.00;0.00;;;;;5.77;84.63;100274.25;5060055;28;45426;-65
2021/12/09 04:35:24;;;;;;;;;1.75;1.75;;;;;5.71;84.17;100261.47;5059385;28;45422;-64
2021/12/09 04:37:49;;;;;;;;;2.00;2.00;;;;;5.77;83.53;100267.38;5060024;28;45241;-65
2021/12/09 04:40:16;;;;;;;;;1.00;1.00;;;;;5.78;83.61;100276.81;5058317;28;45429;-65
2021/12/09 04:42:42;;;;;;;;;2.00;1.00;;;;;5.82;83.50;100271.63;5059648;28;45241;-65
2021/12/09 04:45:10;;;;;;;;;1.50;1.00;;;;;5.79;82.46;100268.19;5059173;28;45416;-64
2021/12/09 04:47:35;;;;;;;;;1.00;1.00;;;;;5.77;82.57;100272.53;5050779;28;45474;-64
2021/12/09 04:50:02;;;;;;;;;0.50;0.00;;;;;5.77;81.66;100279.41;5057439;28;45334;-63
2021/12/09 04:52:27;;;;;;;;;3.75;1.50;;;;;5.78;82.99;100276.81;5039268;28;45816;-62
2021/12/09 04:54:53;;;;;;;;;1.50;0.75;;;;;5.83;83.88;100281.91;5057103;28;45368;-61
2021/12/09 04:57:18;;;;;;;;;2.00;2.00;;;;;5.90;84.08;100272.38;5057292;28;45491;-61
2021/12/09 04:59:44;;;;;;;;;1.50;0.00;;;;;5.89;83.41;100268.06;5056736;28;47105;-60
2021/12/09 05:02:18;;;;;;;;;1.75;1.75;;;;;5.91;83.93;100272.34;5051628;28;45297;-58
2021/12/09 05:04:43;;;;;;;;;1.75;1.75;;;;;5.95;83.67;100273.16;5046099;28;45305;-60
2021/12/09 05:07:08;;;;;;;;;4.00;2.00;;;;;5.96;83.35;100278.28;5057671;28;45249;-64
2021/12/09 05:09:38;;;;;;;;;0.00;0.00;;;;;5.99;83.06;100274.78;5059803;28;45770;-61
2021/12/09 05:12:05;;;;;;;;;2.00;1.00;;;;;5.99;82.44;100275.66;5058781;28;45988;-61
2021/12/09 05:14:31;;;;;;;;;1.00;1.00;;;;;5.99;83.23;100274.78;5059485;28;45281;-61
2021/12/09 05:16:57;;;;;;;;;1.00;1.00;;;;;5.98;83.33;100271.38;5059032;28;45285;-61
2021/12/09 05:19:24;;;;;;;;;1.00;1.00;;;;;5.99;82.98;100273.06;5058978;28;45396;-61
2021/12/09 05:21:52;;;;;;;;;0.25;0.25;;;;;5.99;83.29;100275.66;5055262;28;45906;-61
2021/12/09 05:24:18;;;;;;;;;2.00;1.75;;;;;5.94;82.45;100281.75;5046232;28;45503;-60
2021/12/09 05:26:52;;;;;;;;;3.00;2.25;;;;;5.89;83.08;100273.22;5040111;28;45443;-60
2021/12/09 05:29:29;;;;;;;;;4.75;1.00;;;;;5.95;83.14;100283.47;5059073;28;46182;-60
2021/12/09 05:32:13;;;;;;;;;3.25;1.00;;;;;5.97;83.37;100279.97;5058593;28;45371;-60
2021/12/09 05:34:44;;;;;;;;;2.00;2.00;;;;;5.99;82.37;100285.09;5058994;28;45420;-60
2021/12/09 05:37:14;;;;;;;;;1.25;1.00;;;;;6.00;83.62;100286.81;5059139;28;45176;-61
2021/12/09 05:39:40;;;;;;;;;2.50;1.00;;;;;6.04;83.35;100278.16;5058964;28;47480;-61
2021/12/09 05:42:07;;;;;;;;;1.00;0.00;;;;;6.07;83.38;100283.28;5059748;28;45305;-62
2021/12/09 05:44:34;;;;;;;;;2.50;2.50;;;;;6.08;83.74;100295.28;5059591;28;45305;-62
2021/12/09 05:47:02;;;;;;;;;1.00;1.00;;;;;6.10;83.34;100296.97;5059196;28;45246;-62
2021/12/09 05:49:27;;;;;;;;;1.75;1.75;;;;;6.11;83.33;100295.25;5058793;28;46103;-61
2021/12/09 05:51:53;;;;;;;;;2.00;2.00;;;;;6.14;83.51;100302.06;5059281;28;45298;-61
2021/12/09 05:54:18;;;;;;;;;2.00;2.00;;;;;6.16;83.46;100295.16;5059308;28;45309;-62
2021/12/09 05:56:44;;;;;;;;;7.25;5.00;;;;;6.17;83.38;100299.44;5059091;28;45299;-63
2021/12/09 05:59:10;;;;;;;;;7.75;6.00;;;;;6.15;83.02;100301.19;5058614;28;46189;-63
2021/12/09 06:01:38;;;;;;;;;7.25;5.50;;;;;6.13;82.88;100303.81;5059265;28;45869;-64
2021/12/09 06:04:05;;;;;;;;;3.75;3.75;;;;;6.10;82.66;100304.72;5056434;28;45283;-63
2021/12/09 06:06:31;;;;;;;;;4.00;1.00;;;;;6.10;82.81;100296.13;5049322;28;45466;-62
2021/12/09 06:08:57;;;;;;;;;5.75;5.25;;;;;6.08;83.19;100305.63;5058811;28;45192;-61
2021/12/09 06:11:22;;;;;;;;;3.25;3.00;;;;;6.07;83.06;100307.34;5059294;28;45512;-62
2021/12/09 06:13:49;;;;;;;;;2.50;2.50;;;;;6.03;81.60;100310.00;5058700;28;45323;-62
2021/12/09 06:16:15;;;;;;;;;5.25;2.25;;;;;6.00;82.52;100317.75;5058876;28;45388;-63
2021/12/09 06:18:40;;;;;;;;;4.75;2.00;;;;;6.00;83.14;100313.44;5056966;28;48205;-62
2021/12/09 06:21:06;;;;;;;;;12.00;8.00;;;;;6.00;82.99;100317.75;5058618;28;45371;-61
2021/12/09 06:23:32;;;;;;;;;4.00;2.00;;;;;5.94;81.43;100310.13;5056975;28;45311;-61
2021/12/09 06:25:58;;;;;;;;;1.00;1.00;;;;;5.94;81.98;100320.44;5058951;28;45320;-61
2021/12/09 06:28:23;;;;;;;;;4.50;1.50;;;;;5.92;82.59;100314.47;5057147;28;46915;-60
2021/12/09 06:30:49;;;;;;;;;5.00;3.00;;;;;5.92;82.87;100315.31;5057686;28;45892;-60
2021/12/09 06:33:14;;;;;;;;;3.50;2.00;;;;;5.91;82.85;100318.78;5058325;28;45308;-60
2021/12/09 06:35:40;;;;;;;;;3.25;1.50;;;;;5.88;82.97;100318.78;5058468;28;45469;-59
2021/12/09 06:38:12;;;;;;;;;5.50;3.25;;;;;5.90;83.49;100317.06;5061195;28;45480;-61
2021/12/09 06:40:37;;;;;;;;;5.00;5.00;;;;;5.86;83.28;100327.44;5061530;28;45786;-61
2021/12/09 06:43:03;;;;;;;;;2.75;2.00;;;;;5.86;82.90;100330.00;5060235;28;45367;-61
2021/12/09 06:45:29;;;;;;;;;2.50;2.50;;;;;5.80;82.91;100326.63;5061867;28;45203;-62
2021/12/09 06:47:54;;;;;;;;;2.25;2.25;;;;;5.79;83.45;100335.22;5061130;28;45220;-62
2021/12/09 06:50:22;;;;;;;;;2.00;2.00;;;;;5.75;83.09;100337.88;5061282;28;45291;-60
2021/12/09 06:52:47;;;;;;;;;2.00;2.00;;;;;5.76;83.59;100331.84;5058429;28;45546;-61
2021/12/09 06:55:14;;;;;;;;;4.50;1.25;;;;;5.77;83.44;100333.56;5060369;28;45409;-58
2021/12/09 06:57:43;;;;;;;;;13.00;11.50;;;;;5.73;82.97;100340.47;5061251;28;45650;-64
2021/12/09 07:00:11;;;;;;;;;5.25;2.00;;;;;5.71;83.14;100347.38;5061514;28;45785;-60
2021/12/09 07:02:37;;;;;;;;;6.00;6.00;;;;;5.69;83.51;100346.56;5061615;28;45456;-59
2021/12/09 07:05:05;;;;;;;;;8.25;4.00;;;;;5.73;83.46;100344.78;5059823;28;45465;-64
2021/12/09 07:07:31;;;;;;;;;5.00;4.00;;;;;5.75;83.30;100349.03;5061195;28;46915;-64
2021/12/09 07:09:56;;;;;;;;;5.50;4.25;;;;;5.76;83.61;100350.75;5061583;28;45405;-64
2021/12/09 07:12:22;;;;;;;;;6.00;4.75;;;;;5.73;83.00;100345.63;5061621;28;45278;-67
2021/12/09 07:14:47;;;;;;;;;1.50;1.50;;;;;5.69;83.42;100340.56;5061140;28;45301;-66
2021/12/09 07:17:12;;;;;;;;;4.75;4.00;;;;;5.69;83.78;100341.41;5061321;28;45394;-69
2021/12/09 07:19:38;;;;;;;;;4.25;4.00;;;;;5.72;84.16;100349.09;5060944;28;45279;-70
2021/12/09 07:22:04;;;;;;;;;6.25;4.50;;;;;5.72;83.11;100346.50;5061224;28;45384;-75
2021/12/09 07:24:31;;;;;;;;;2.25;2.25;;;;;5.73;83.99;100349.94;5060704;28;45149;-70
2021/12/09 07:26:57;;;;;;;;;5.25;4.25;;;;;5.74;83.43;100347.34;5060940;28;45247;-72
2021/12/09 07:29:23;;;;;;;;;4.75;2.25;;;;;5.75;83.20;100346.47;5060068;28;45731;-64
2021/12/09 07:31:49;;;;;;;;;6.75;6.75;;;;;5.77;84.30;100347.28;5061506;28;45283;-68
2021/12/09 07:34:16;;;;;;;;;8.00;5.25;;;;;5.76;83.97;100340.44;5061044;28;45414;-65
2021/12/09 07:36:42;;;;;;;;;10.00;7.50;;;;;5.77;83.74;100339.56;5060961;28;45513;-65
2021/12/09 07:39:07;;;;;;;;;5.00;2.75;;;;;5.73;83.10;100345.63;5058336;28;45613;-65
2021/12/09 07:41:33;;;;;;;;;6.50;5.75;;;;;5.67;82.54;100330.25;5060971;28;45283;-65
2021/12/09 07:44:01;;;;;;;;;5.50;4.75;;;;;5.69;84.04;100340.56;5061321;28;45235;-65
2021/12/09 07:46:27;;;;;;;;;5.75;5.00;;;;;5.69;83.43;100337.97;5060645;28;45706;-65
2021/12/09 07:48:52;;;;;;;;;11.25;8.00;;;;;5.70;83.43;100340.53;5060008;28;45459;-65
2021/12/09 07:51:18;;;;;;;;;5.75;5.75;;;;;5.70;83.26;100345.69;5061125;28;45295;-65
2021/12/09 07:53:43;;;;;;;;;5.00;4.25;;;;;5.71;84.65;100349.13;5060768;28;45490;-48
2021/12/09 07:56:09;;;;;;;;;5.00;5.00;;;;;5.84;84.38;100342.06;5060933;28;45299;-47
2021/12/09 07:58:35;;;;;;;;;11.00;6.00;;;;;5.99;83.60;100353.03;5042622;28;45319;-58
2021/12/09 08:01:00;;;;;;;;;6.75;5.75;;;;;6.14;83.74;100359.69;5060570;28;45281;-73
2021/12/09 08:03:26;;;;;;;;;5.75;5.75;;;;;6.10;82.93;100351.16;5060135;28;45976;-72
2021/12/09 08:05:51;;;;;;;;;7.00;7.00;;;;;6.06;81.81;100346.06;5060524;28;45460;-73
2021/12/09 08:08:16;;;;;;;;;6.25;4.75;;;;;5.99;82.50;100353.03;5060876;28;45388;-69
2021/12/09 08:10:42;;;;;;;;;5.00;4.50;;;;;5.93;81.96;100352.28;5060277;28;45342;-69
2021/12/09 08:13:08;;;;;;;;;45.25;35.50;;;;;5.88;81.90;100346.31;5066741;28;45388;-73
2021/12/09 08:15:39;;;;;;;;;18.00;12.50;;;;;5.81;80.88;100350.72;5059854;28;46357;-71
2021/12/09 08:20:40;;;;;;;;;53.50;41.00;;;;;5.79;82.64;100363.59;5056851;28;45551;-75
2021/12/09 08:23:06;;;;;;;;;14.25;8.25;;;;;5.83;82.37;100361.00;5056926;28;45311;-71
2021/12/09 08:25:31;;;;;;;;;9.50;5.00;;;;;5.91;82.63;100354.03;5057473;28;46448;-74
2021/12/09 08:27:57;;;;;;;;;3.75;3.75;;;;;5.91;82.02;100346.28;5058863;28;45315;-72
2021/12/09 08:30:25;;;;;;;;;13.75;11.75;;;;;5.97;82.25;100348.75;5060092;28;45324;-72
2021/12/09 08:32:53;;;;;;;;;8.75;5.50;;;;;6.00;81.79;100346.13;5060404;28;45410;-73
2021/12/09 08:35:20;;;;;;;;;10.75;7.25;;;;;5.98;81.35;100356.47;5060152;28;45374;-72
2021/12/09 08:37:47;;;;;;;;;10.25;6.00;;;;;5.99;80.26;100359.91;5060510;28;45787;-72
2021/12/09 08:40:15;;;;;;;;;9.50;5.50;;;;;6.04;81.82;100358.13;5059651;28;45305;-73
2021/12/09 08:42:40;;;;;;;;;12.00;6.00;;;;;6.10;81.49;100360.59;5060546;28;46181;-75
2021/12/09 08:45:09;;;;;;;;;29.00;22.25;;;;;6.17;81.75;100357.06;5059923;28;45340;-72
2021/12/09 08:47:41;;;;;;;;;15.50;14.75;;;;;6.24;81.26;100363.00;5059399;28;45348;-71
2021/12/09 08:50:10;;;;;;;;;6.50;3.50;;;;;6.30;80.45;100370.63;5060189;28;45236;-74
2021/12/09 08:52:36;;;;;;;;;9.00;5.00;;;;;6.28;81.00;100375.81;5059952;28;45520;-72
2021/12/09 08:55:02;;;;;;;;;13.00;7.25;;;;;6.35;81.14;100387.72;5059433;28;45411;-73
2021/12/09 08:57:27;;;;;;;;;5.00;5.00;;;;;6.44;80.84;100391.06;5060012;28;45291;-73
2021/12/09 08:59:53;;;;;;;;;8.50;6.50;;;;;6.51;80.21;100383.19;5059422;28;45351;-75
2021/12/09 09:02:19;;;;;;;;;6.25;5.75;;;;;6.60;78.30;100382.16;5059518;28;45399;-74
2021/12/09 09:04:45;;;;;;;;;5.00;5.00;;;;;6.63;79.74;100398.47;5059586;28;46065;-70
2021/12/09 09:07:10;;;;;;;;;6.75;6.75;;;;;6.77;80.02;100405.13;5059914;28;45933;-73
2021/12/09 09:09:37;;;;;;;;;8.25;5.00;;;;;6.87;77.07;100406.66;5059752;28;45157;-73
2021/12/09 09:12:07;;;;;;;;;9.75;7.50;;;;;6.95;79.64;100405.66;5059922;28;45362;-73
2021/12/09 09:14:33;;;;;;;;;7.00;3.50;;;;;7.10;78.42;100414.00;5058206;28;46255;-73
2021/12/09 09:16:59;;;;;;;;;5.00;3.00;;;;;7.15;76.82;100422.50;5059853;28;45221;-72
2021/12/09 09:19:25;;;;;;;;;8.75;4.50;;;;;7.24;76.65;100423.22;5059389;28;45316;-73
2021/12/09 09:21:51;;;;;;;;;11.00;5.00;;;;;7.31;74.96;100414.44;5059501;28;45240;-71
2021/12/09 09:24:17;;;;;;;;;3.00;3.00;;;;;7.40;76.60;100415.13;5059197;28;45387;-72
2021/12/09 09:26:43;;;;;;;;;6.50;4.00;;;;;7.50;77.46;100414.94;5057500;28;45768;-71
2021/12/09 09:29:08;;;;;;;;;7.25;3.00;;;;;7.67;75.30;100413.75;5060072;28;45330;-69
2021/12/09 09:31:35;;;;;;;;;38.75;29.25;;;;;7.96;73.23;100413.13;5059408;28;45421;-64
2021/12/09 09:34:03;;;;;;;;;7.50;6.00;;;;;8.75;76.02;100419.91;5059125;28;45454;-64
2021/12/09 09:36:29;;;;;;;;;6.50;3.00;;;;;9.25;70.85;100420.34;5059043;28;45411;-64
2021/12/09 09:39:00;;;;;;;;;3.00;1.00;;;;;9.41;71.05;100419.03;5059140;28;45474;-64
2021/12/09 09:41:32;;;;;;;;;5.50;5.50;;;;;9.51;71.46;100431.72;5057447;28;45265;-67
2021/12/09 09:44:09;;;;;;;;;6.75;4.00;;;;;9.35;68.38;100428.69;5053295;28;46080;-67
2021/12/09 09:46:34;;;;;;;;;9.00;8.75;;;;;9.28;71.11;100435.81;5056513;28;45422;-67
2021/12/09 09:49:01;;;;;;;;;4.00;3.50;;;;;9.82;66.45;100442.09;5037315;28;45446;-67
2021/12/09 09:51:29;;;;;;;;;8.00;4.25;;;;;9.89;67.92;100444.44;5022680;28;46407;-64
2021/12/09 09:53:54;;;;;;;;;6.00;4.00;;;;;9.82;69.23;100442.09;5034827;28;46157;-65
2021/12/09 09:56:23;;;;;;;;;9.00;7.25;;;;;9.79;69.63;100442.16;5038035;28;45419;-64
2021/12/09 09:58:56;;;;;;;;;9.50;5.25;;;;;10.28;70.97;100450.22;5038043;28;45372;-64
2021/12/09 10:01:22;;;;;;;;;7.00;4.25;;;;;11.03;68.85;100440.00;5038250;28;46051;-65
2021/12/09 10:03:51;;;;;;;;;7.00;5.00;;;;;11.20;67.20;100442.00;5034934;28;46192;-63
2021/12/09 10:06:19;;;;;;;;;6.75;5.00;;;;;11.34;66.56;100444.13;5058534;28;45404;-64
2021/12/09 10:08:44;;;;;;;;;4.25;4.25;;;;;11.19;65.49;100442.91;5057878;28;45429;-65
2021/12/09 10:11:10;;;;;;;;;8.00;4.25;;;;;10.89;64.45;100434.41;5040656;28;45475;-67
2021/12/09 10:13:39;;;;;;;;;8.00;5.00;;;;;10.68;65.93;100430.78;5047874;28;45390;-66
2021/12/09 10:16:16;;;;;;;;;4.50;4.50;;;;;10.54;64.17;100428.63;5039344;28;45379;-66
2021/12/09 10:18:46;;;;;;;;;7.50;6.00;;;;;10.36;66.77;100430.03;5058623;28;45334;-68
2021/12/09 10:21:19;;;;;;;;;7.25;5.25;;;;;10.34;64.81;100421.47;5043880;28;45451;-67
2021/12/09 10:23:50;;;;;;;;;9.00;6.25;;;;;11.18;66.05;100417.78;5052313;28;48278;-68
2021/12/09 10:26:18;;;;;;;;;7.75;5.00;;;;;11.88;58.85;100410.91;5052422;28;45410;-63
2021/12/09 10:28:52;;;;;;;;;3.75;2.50;;;;;11.42;59.90;100409.16;5060886;28;45305;-65
2021/12/09 10:31:29;;;;;;;;;11.00;10.00;;;;;11.15;62.31;100408.34;5061637;28;45463;-64
2021/12/09 10:34:15;;;;;;;;;8.00;4.00;;;;;10.98;60.95;100402.88;5061099;28;46259;-65
2021/12/09 10:36:55;;;;;;;;;4.50;4.50;;;;;11.57;63.76;100398.16;5051374;28;45697;-60
2021/12/09 10:39:34;;;;;;;;;7.75;6.00;;;;;12.16;64.11;100392.44;5052785;28;45432;-54
2021/12/09 10:42:14;;;;;;;;;4.75;3.50;;;;;11.73;59.65;100390.63;5049229;28;45397;-50
2021/12/09 10:44:55;;;;;;;;;7.25;5.00;;;;;11.40;62.31;100386.66;5060232;28;46370;-52
2021/12/09 10:47:37;;;;;;;;;4.50;4.00;;;;;11.04;61.22;100392.28;5059194;28;45565;-51
2021/12/09 10:50:27;;;;;;;;;3.00;3.00;;;;;11.24;64.47;100383.78;5060495;28;45698;-50
2021/12/09 10:55:51;;;;;;;;;3.75;2.25;;;;;11.88;60.39;100374.47;5060169;28;45352;-49
2021/12/09 10:58:19;;;;;;;;;5.00;3.00;;;;;11.98;60.61;100377.53;5060273;28;45436;-50
2021/12/09 11:00:51;;;;;;;;;3.75;3.00;;;;;12.24;56.75;100373.09;5061747;28;45237;-52
2021/12/09 11:03:24;;;;;;;;;5.00;3.00;;;;;11.81;57.81;100380.81;5061296;28;45276;-52
2021/12/09 11:06:04;;;;;;;;;4.00;3.25;;;;;11.39;58.87;100378.00;5061118;28;47043;-50
2021/12/09 11:08:34;;;;;;;;;3.75;3.00;;;;;11.27;62.91;100374.13;5061612;28;45366;-51
2021/12/09 11:11:05;;;;;;;;;2.75;2.75;;;;;11.25;59.82;100372.47;5060670;28;45343;-51
2021/12/09 11:13:55;;;;;;;;;8.50;5.00;;;;;11.23;60.65;100364.72;5060843;28;45248;-50
2021/12/09 11:16:48;;;;;;;;;4.75;3.75;;;;;11.68;58.74;100371.75;5060924;28;46085;-50
2021/12/09 11:19:25;;;;;;;;;6.00;4.50;;;;;11.66;63.74;100363.16;5055506;28;45840;-51
2021/12/09 11:21:59;;;;;;;;;8.50;4.00;;;;;12.70;59.36;100364.22;5060448;28;45526;-51
2021/12/09 11:24:30;;;;;;;;;4.25;2.25;;;;;12.93;57.26;100355.41;5060309;28;45426;-51
2021/12/09 11:27:04;;;;;;;;;4.25;3.00;;;;;13.16;56.58;100357.00;5060613;28;45270;-51
2021/12/09 11:29:30;;;;;;;;;6.00;3.25;;;;;12.82;55.08;100355.88;5060754;28;45240;-52
2021/12/09 11:32:21;;;;;;;;;3.25;3.25;;;;;12.70;58.07;100359.84;5060829;28;45236;-52
2021/12/09 11:34:54;;;;;;;;;4.75;2.50;;;;;12.35;55.93;100361.28;5060180;28;45462;-50
2021/12/09 11:40:32;;;;;;;;;7.75;4.50;;;;;11.47;58.74;100349.97;5060722;28;45714;-50
2021/12/09 11:43:00;;;;;;;;;2.50;2.50;;;;;11.25;59.11;100349.06;5060525;28;46701;-51